sensor_id;sensor_type;location;lat;lon;timestamp;pressure;altitude;pressure_sealevel;temperature;humidity
15314;BME280;7757;52.626;4.746;2022-08-19T00:01:19;101219.19;;;25.05;59.12
15314;BME280;7757;52.626;4.746;2022-08-19T00:03:46;101216.09;;;24.71;60.70
15314;BME280;7757;52.626;4.746;2022-08-19T00:06:13;101220.56;;;23.73;62.95
15314;BME280;7757;52.626;4.746;2022-08-19T00:08:39;101214.16;;;24.56;61.65
15314;BME280;7757;52.626;4.746;2022-08-19T00:11:06;101219.66;;;24.76;60.66
15314;BME280;7757;52.626;4.746;2022-08-19T00:13:33;101230.63;;;24.81;60.42
15314;BME280;7757;52.626;4.746;2022-08-19T00:16:01;101233.66;;;24.85;60.10
15314;BME280;7757;52.626;4.746;2022-08-19T00:18:28;101225.44;;;24.90;59.67
15314;BME280;7757;52.626;4.746;2022-08-19T00:20:54;101225.88;;;24.47;61.52
15314;BME280;7757;52.626;4.746;2022-08-19T00:23:21;101232.50;;;24.76;60.68
15314;BME280;7757;52.626;4.746;2022-08-19T00:25:48;101230.91;;;24.80;60.70
15314;BME280;7757;52.626;4.746;2022-08-19T00:28:14;101231.22;;;24.88;59.76
15314;BME280;7757;52.626;4.746;2022-08-19T00:30:41;101226.56;;;24.94;60.10
15314;BME280;7757;52.626;4.746;2022-08-19T00:33:08;101217.81;;;24.97;59.83
15314;BME280;7757;52.626;4.746;2022-08-19T00:35:35;101215.06;;;24.97;59.88
15314;BME280;7757;52.626;4.746;2022-08-19T00:38:04;101207.94;;;24.96;59.83
15314;BME280;7757;52.626;4.746;2022-08-19T00:40:31;101221.09;;;25.04;59.43
15314;BME280;7757;52.626;4.746;2022-08-19T00:42:58;101222.75;;;25.00;59.33
15314;BME280;7757;52.626;4.746;2022-08-19T00:45:26;101227.09;;;24.96;59.83
15314;BME280;7757;52.626;4.746;2022-08-19T00:47:55;101226.25;;;24.80;60.30
15314;BME280;7757;52.626;4.746;2022-08-19T00:50:23;101230.59;;;24.76;60.20
15314;BME280;7757;52.626;4.746;2022-08-19T00:52:50;101230.06;;;24.79;60.63
15314;BME280;7757;52.626;4.746;2022-08-19T00:55:19;101229.47;;;24.62;60.66
15314;BME280;7757;52.626;4.746;2022-08-19T00:57:55;101225.88;;;24.52;61.54
15314;BME280;7757;52.626;4.746;2022-08-19T01:00:24;101229.25;;;24.74;60.77
15314;BME280;7757;52.626;4.746;2022-08-19T01:02:52;101224.28;;;24.66;60.58
15314;BME280;7757;52.626;4.746;2022-08-19T01:05:22;101217.38;;;24.48;61.38
15314;BME280;7757;52.626;4.746;2022-08-19T01:07:50;101216.34;;;24.64;61.15
15314;BME280;7757;52.626;4.746;2022-08-19T01:10:19;101209.47;;;24.47;61.64
15314;BME280;7757;52.626;4.746;2022-08-19T01:12:47;101209.75;;;24.60;61.27
15314;BME280;7757;52.626;4.746;2022-08-19T01:15:17;101215.28;;;24.70;60.73
15314;BME280;7757;52.626;4.746;2022-08-19T01:17:45;101215.28;;;24.70;60.82
15314;BME280;7757;52.626;4.746;2022-08-19T01:20:14;101215.81;;;24.77;60.46
15314;BME280;7757;52.626;4.746;2022-08-19T01:22:45;101224.81;;;24.63;60.84
15314;BME280;7757;52.626;4.746;2022-08-19T01:25:12;101223.75;;;24.74;60.90
15314;BME280;7757;52.626;4.746;2022-08-19T01:27:40;101233.38;;;24.81;60.82
15314;BME280;7757;52.626;4.746;2022-08-19T01:30:10;101229.84;;;24.91;60.13
15314;BME280;7757;52.626;4.746;2022-08-19T01:32:37;101240.00;;;24.23;62.46
15314;BME280;7757;52.626;4.746;2022-08-19T01:35:04;101231.69;;;24.70;60.88
15314;BME280;7757;52.626;4.746;2022-08-19T01:37:43;101232.94;;;24.37;61.36
15314;BME280;7757;52.626;4.746;2022-08-19T01:40:11;101220.72;;;24.65;61.10
15314;BME280;7757;52.626;4.746;2022-08-19T01:42:37;101218.84;;;24.71;60.79
15314;BME280;7757;52.626;4.746;2022-08-19T01:45:05;101218.84;;;24.76;60.35
15314;BME280;7757;52.626;4.746;2022-08-19T01:47:33;101220.44;;;24.67;60.70
15314;BME280;7757;52.626;4.746;2022-08-19T01:50:00;101216.53;;;24.37;62.17
15314;BME280;7757;52.626;4.746;2022-08-19T01:52:26;101219.03;;;24.54;61.43
15314;BME280;7757;52.626;4.746;2022-08-19T01:54:55;101218.97;;;24.34;62.00
15314;BME280;7757;52.626;4.746;2022-08-19T01:57:21;101224.78;;;24.53;61.86
15314;BME280;7757;52.626;4.746;2022-08-19T01:59:48;101227.50;;;24.48;61.79
15314;BME280;7757;52.626;4.746;2022-08-19T02:02:15;101228.78;;;24.30;62.59
15314;BME280;7757;52.626;4.746;2022-08-19T02:04:41;101226.84;;;23.73;63.82
15314;BME280;7757;52.626;4.746;2022-08-19T02:07:08;101227.41;;;24.27;62.52
15314;BME280;7757;52.626;4.746;2022-08-19T02:09:35;101240.97;;;24.64;61.58
15314;BME280;7757;52.626;4.746;2022-08-19T02:12:03;101238.19;;;24.54;61.36
15314;BME280;7757;52.626;4.746;2022-08-19T02:14:30;101233.84;;;24.68;61.28
15314;BME280;7757;52.626;4.746;2022-08-19T02:16:56;101225.88;;;24.57;61.59
15314;BME280;7757;52.626;4.746;2022-08-19T02:19:23;101218.50;;;24.57;61.33
15314;BME280;7757;52.626;4.746;2022-08-19T02:21:49;101226.19;;;24.60;61.26
15314;BME280;7757;52.626;4.746;2022-08-19T02:24:16;101213.03;;;24.47;61.52
15314;BME280;7757;52.626;4.746;2022-08-19T02:26:42;101214.97;;;24.62;61.32
15314;BME280;7757;52.626;4.746;2022-08-19T02:29:10;101214.16;;;24.66;61.15
15314;BME280;7757;52.626;4.746;2022-08-19T02:31:36;101224.50;;;24.44;61.63
15314;BME280;7757;52.626;4.746;2022-08-19T02:34:03;101219.59;;;23.94;63.53
15314;BME280;7757;52.626;4.746;2022-08-19T02:36:29;101223.44;;;24.50;61.50
15314;BME280;7757;52.626;4.746;2022-08-19T02:38:56;101216.34;;;24.59;61.45
15314;BME280;7757;52.626;4.746;2022-08-19T02:41:24;101215.66;;;24.22;62.33
15314;BME280;7757;52.626;4.746;2022-08-19T02:43:52;101209.53;;;24.05;62.91
15314;BME280;7757;52.626;4.746;2022-08-19T02:46:22;101200.69;;;24.39;61.76
15314;BME280;7757;52.626;4.746;2022-08-19T02:48:48;101197.72;;;24.56;61.64
15314;BME280;7757;52.626;4.746;2022-08-19T02:51:16;101201.56;;;24.65;60.62
15314;BME280;7757;52.626;4.746;2022-08-19T02:53:43;101208.16;;;24.69;60.57
15314;BME280;7757;52.626;4.746;2022-08-19T02:56:10;101207.59;;;24.67;61.04
15314;BME280;7757;52.626;4.746;2022-08-19T02:58:37;101210.03;;;24.64;60.76
15314;BME280;7757;52.626;4.746;2022-08-19T03:01:03;101204.59;;;24.69;60.59
15314;BME280;7757;52.626;4.746;2022-08-19T03:03:32;101205.41;;;24.69;60.59
15314;BME280;7757;52.626;4.746;2022-08-19T03:06:08;101205.41;;;24.74;60.50
15314;BME280;7757;52.626;4.746;2022-08-19T03:08:36;101196.41;;;24.74;60.66
15314;BME280;7757;52.626;4.746;2022-08-19T03:11:03;101187.34;;;24.68;60.62
15314;BME280;7757;52.626;4.746;2022-08-19T03:13:30;101175.88;;;24.76;60.72
15314;BME280;7757;52.626;4.746;2022-08-19T03:15:57;101166.84;;;24.76;60.55
15314;BME280;7757;52.626;4.746;2022-08-19T03:18:23;101161.94;;;24.73;60.72
15314;BME280;7757;52.626;4.746;2022-08-19T03:20:52;101156.44;;;24.73;60.20
15314;BME280;7757;52.626;4.746;2022-08-19T03:23:20;101163.03;;;24.77;60.51
15314;BME280;7757;52.626;4.746;2022-08-19T03:25:48;101166.03;;;24.70;60.48
15314;BME280;7757;52.626;4.746;2022-08-19T03:28:16;101174.22;;;24.70;60.40
15314;BME280;7757;52.626;4.746;2022-08-19T03:30:53;101170.59;;;24.44;61.09
15314;BME280;7757;52.626;4.746;2022-08-19T03:33:21;101168.72;;;24.55;60.64
15314;BME280;7757;52.626;4.746;2022-08-19T03:36:01;101164.03;;;24.35;61.18
15314;BME280;7757;52.626;4.746;2022-08-19T03:38:28;101172.19;;;24.25;62.01
15314;BME280;7757;52.626;4.746;2022-08-19T03:40:54;101165.66;;;24.36;61.80
15314;BME280;7757;52.626;4.746;2022-08-19T03:43:21;101160.44;;;24.30;61.94
15314;BME280;7757;52.626;4.746;2022-08-19T03:45:47;101166.50;;;24.32;61.79
15314;BME280;7757;52.626;4.746;2022-08-19T03:48:14;101163.75;;;24.37;61.42
15314;BME280;7757;52.626;4.746;2022-08-19T03:50:42;101162.09;;;24.26;61.32
15314;BME280;7757;52.626;4.746;2022-08-19T03:53:09;101165.97;;;24.40;61.08
15314;BME280;7757;52.626;4.746;2022-08-19T03:55:39;101160.97;;;24.22;61.71
15314;BME280;7757;52.626;4.746;2022-08-19T03:58:06;101165.97;;;24.45;61.28
15314;BME280;7757;52.626;4.746;2022-08-19T04:00:32;101167.91;;;24.50;60.83
15314;BME280;7757;52.626;4.746;2022-08-19T04:02:59;101169.81;;;24.44;60.84
15314;BME280;7757;52.626;4.746;2022-08-19T04:05:26;101170.59;;;24.39;61.25
15314;BME280;7757;52.626;4.746;2022-08-19T04:07:53;101170.31;;;24.36;60.89
15314;BME280;7757;52.626;4.746;2022-08-19T04:10:21;101166.25;;;24.38;61.23
15314;BME280;7757;52.626;4.746;2022-08-19T04:12:49;101162.38;;;24.34;61.39
15314;BME280;7757;52.626;4.746;2022-08-19T04:15:16;101170.06;;;24.37;61.13
15314;BME280;7757;52.626;4.746;2022-08-19T04:17:42;101162.34;;;24.19;61.87
15314;BME280;7757;52.626;4.746;2022-08-19T04:20:09;101173.03;;;24.26;61.45
15314;BME280;7757;52.626;4.746;2022-08-19T04:22:35;101170.59;;;24.29;61.42
15314;BME280;7757;52.626;4.746;2022-08-19T04:25:02;101177.78;;;23.99;62.28
15314;BME280;7757;52.626;4.746;2022-08-19T04:27:30;101173.56;;;24.28;61.62
15314;BME280;7757;52.626;4.746;2022-08-19T04:29:58;101182.19;;;24.00;62.18
15314;BME280;7757;52.626;4.746;2022-08-19T04:32:24;101185.59;;;24.27;61.65
15314;BME280;7757;52.626;4.746;2022-08-19T04:34:51;101187.25;;;24.28;61.33
15314;BME280;7757;52.626;4.746;2022-08-19T04:37:18;101187.78;;;24.30;61.12
15314;BME280;7757;52.626;4.746;2022-08-19T04:39:45;101188.34;;;24.32;60.89
15314;BME280;7757;52.626;4.746;2022-08-19T04:42:30;101182.84;;;24.22;61.60
15314;BME280;7757;52.626;4.746;2022-08-19T04:45:08;101182.84;;;24.17;61.39
15314;BME280;7757;52.626;4.746;2022-08-19T04:47:36;101170.84;;;24.33;61.18
15314;BME280;7757;52.626;4.746;2022-08-19T04:50:03;101176.59;;;24.31;61.37
15314;BME280;7757;52.626;4.746;2022-08-19T04:52:30;101170.06;;;24.37;61.14
15314;BME280;7757;52.626;4.746;2022-08-19T04:54:57;101175.00;;;24.51;60.71
15314;BME280;7757;52.626;4.746;2022-08-19T04:57:24;101175.00;;;24.46;60.83
15314;BME280;7757;52.626;4.746;2022-08-19T04:59:55;101180.75;;;24.49;60.60
15314;BME280;7757;52.626;4.746;2022-08-19T05:02:22;101185.09;;;24.40;60.48
15314;BME280;7757;52.626;4.746;2022-08-19T05:04:50;101176.91;;;24.40;61.24
15314;BME280;7757;52.626;4.746;2022-08-19T05:07:17;101178.50;;;24.36;61.20
15314;BME280;7757;52.626;4.746;2022-08-19T05:09:44;101180.50;;;24.66;59.97
15314;BME280;7757;52.626;4.746;2022-08-19T05:12:10;101184.34;;;24.65;59.90
15314;BME280;7757;52.626;4.746;2022-08-19T05:14:36;101178.28;;;24.48;60.91
15314;BME280;7757;52.626;4.746;2022-08-19T05:17:04;101184.84;;;24.57;60.66
15314;BME280;7757;52.626;4.746;2022-08-19T05:19:31;101190.91;;;24.69;60.13
15314;BME280;7757;52.626;4.746;2022-08-19T05:22:15;101196.72;;;24.10;62.45
15314;BME280;7757;52.626;4.746;2022-08-19T05:25:03;101194.34;;;24.24;62.29
15314;BME280;7757;52.626;4.746;2022-08-19T05:27:30;101181.28;;;24.46;61.70
15314;BME280;7757;52.626;4.746;2022-08-19T05:29:57;101183.81;;;24.01;63.00
15314;BME280;7757;52.626;4.746;2022-08-19T05:32:26;101187.34;;;24.63;61.25
15314;BME280;7757;52.626;4.746;2022-08-19T05:34:53;101187.88;;;24.55;61.14
15314;BME280;7757;52.626;4.746;2022-08-19T05:37:20;101186.00;;;24.71;61.00
15314;BME280;7757;52.626;4.746;2022-08-19T05:39:47;101193.94;;;24.77;60.04
15314;BME280;7757;52.626;4.746;2022-08-19T05:42:14;101180.31;;;24.82;60.34
15314;BME280;7757;52.626;4.746;2022-08-19T05:44:43;101193.72;;;24.94;59.75
15314;BME280;7757;52.626;4.746;2022-08-19T05:47:12;101181.06;;;24.73;60.61
15314;BME280;7757;52.626;4.746;2022-08-19T05:49:41;101175.06;;;24.76;60.20
15314;BME280;7757;52.626;4.746;2022-08-19T05:52:10;101179.22;;;25.14;59.10
15314;BME280;7757;52.626;4.746;2022-08-19T05:54:37;101189.59;;;25.22;58.75
15314;BME280;7757;52.626;4.746;2022-08-19T05:57:05;101172.38;;;25.26;59.00
15314;BME280;7757;52.626;4.746;2022-08-19T05:59:32;101172.09;;;25.03;59.96
15314;BME280;7757;52.626;4.746;2022-08-19T06:02:01;101170.19;;;25.23;59.51
15314;BME280;7757;52.626;4.746;2022-08-19T06:04:27;101172.38;;;24.91;61.07
15314;BME280;7757;52.626;4.746;2022-08-19T06:06:55;101180.31;;;24.87;60.31
15314;BME280;7757;52.626;4.746;2022-08-19T06:09:23;101183.78;;;24.63;60.93
15314;BME280;7757;52.626;4.746;2022-08-19T06:11:52;101184.88;;;24.72;60.96
15314;BME280;7757;52.626;4.746;2022-08-19T06:14:21;101176.44;;;24.73;60.93
15314;BME280;7757;52.626;4.746;2022-08-19T06:16:48;101180.53;;;24.76;60.96
15314;BME280;7757;52.626;4.746;2022-08-19T06:19:18;101183.81;;;24.73;61.66
15314;BME280;7757;52.626;4.746;2022-08-19T06:21:47;101183.84;;;25.43;60.09
15314;BME280;7757;52.626;4.746;2022-08-19T06:24:18;101196.59;;;26.08;57.70
15314;BME280;7757;52.626;4.746;2022-08-19T06:26:47;101185.41;;;25.90;58.03
15314;BME280;7757;52.626;4.746;2022-08-19T06:29:15;101193.09;;;25.88;59.64
15314;BME280;7757;52.626;4.746;2022-08-19T06:31:44;101183.31;;;25.36;60.15
15314;BME280;7757;52.626;4.746;2022-08-19T06:34:11;101175.94;;;25.42;59.90
15314;BME280;7757;52.626;4.746;2022-08-19T06:36:40;101170.19;;;25.38;61.00
15314;BME280;7757;52.626;4.746;2022-08-19T06:39:11;101179.72;;;25.66;59.54
15314;BME280;7757;52.626;4.746;2022-08-19T06:41:42;101184.28;;;26.06;58.50
15314;BME280;7757;52.626;4.746;2022-08-19T06:44:08;101187.38;;;25.69;59.71
15314;BME280;7757;52.626;4.746;2022-08-19T06:46:35;101186.84;;;25.67;59.91
15314;BME280;7757;52.626;4.746;2022-08-19T06:49:02;101190.06;;;25.94;59.82
15314;BME280;7757;52.626;4.746;2022-08-19T06:51:29;101193.41;;;25.81;59.35
15314;BME280;7757;52.626;4.746;2022-08-19T06:53:58;101192.56;;;25.91;59.93
15314;BME280;7757;52.626;4.746;2022-08-19T06:56:26;101196.56;;;26.14;59.09
15314;BME280;7757;52.626;4.746;2022-08-19T06:58:57;101187.81;;;26.17;58.55
15314;BME280;7757;52.626;4.746;2022-08-19T07:01:24;101183.09;;;26.32;59.10
15314;BME280;7757;52.626;4.746;2022-08-19T07:03:50;101189.50;;;26.61;58.20
15314;BME280;7757;52.626;4.746;2022-08-19T07:06:17;101190.91;;;27.37;56.38
15314;BME280;7757;52.626;4.746;2022-08-19T07:08:46;101196.00;;;26.76;58.08
15314;BME280;7757;52.626;4.746;2022-08-19T07:11:15;101197.00;;;26.46;59.04
15314;BME280;7757;52.626;4.746;2022-08-19T07:13:43;101193.56;;;26.20;59.17
15314;BME280;7757;52.626;4.746;2022-08-19T07:16:15;101192.56;;;25.86;61.06
15314;BME280;7757;52.626;4.746;2022-08-19T07:18:42;101197.56;;;25.59;61.92
15314;BME280;7757;52.626;4.746;2022-08-19T07:21:11;101197.78;;;25.72;62.01
15314;BME280;7757;52.626;4.746;2022-08-19T07:23:38;101201.13;;;25.29;63.46
15314;BME280;7757;52.626;4.746;2022-08-19T07:26:06;101205.50;;;25.60;62.72
15314;BME280;7757;52.626;4.746;2022-08-19T07:28:33;101211.91;;;26.25;60.93
15314;BME280;7757;52.626;4.746;2022-08-19T07:31:00;101208.59;;;26.28;60.61
15314;BME280;7757;52.626;4.746;2022-08-19T07:33:29;101209.41;;;26.38;60.56
15314;BME280;7757;52.626;4.746;2022-08-19T07:35:57;101205.31;;;26.31;60.82
15314;BME280;7757;52.626;4.746;2022-08-19T07:38:24;101209.78;;;25.96;62.20
15314;BME280;7757;52.626;4.746;2022-08-19T07:40:50;101209.22;;;26.15;61.25
15314;BME280;7757;52.626;4.746;2022-08-19T07:43:17;101193.94;;;25.78;61.92
15314;BME280;7757;52.626;4.746;2022-08-19T07:45:46;101203.97;;;28.87;53.36
15314;BME280;7757;52.626;4.746;2022-08-19T07:48:12;101211.91;;;29.58;51.33
15314;BME280;7757;52.626;4.746;2022-08-19T07:50:40;101212.31;;;29.65;51.42
15314;BME280;7757;52.626;4.746;2022-08-19T07:53:07;101210.97;;;29.49;51.90
15314;BME280;7757;52.626;4.746;2022-08-19T07:55:33;101209.09;;;30.04;51.05
15314;BME280;7757;52.626;4.746;2022-08-19T07:58:00;101205.53;;;29.44;52.30
15314;BME280;7757;52.626;4.746;2022-08-19T08:00:26;101202.44;;;28.81;53.34
15314;BME280;7757;52.626;4.746;2022-08-19T08:02:53;101207.56;;;27.11;57.89
15314;BME280;7757;52.626;4.746;2022-08-19T08:05:19;101206.84;;;26.57;59.44
15314;BME280;7757;52.626;4.746;2022-08-19T08:08:05;101213.72;;;27.32;58.27
15314;BME280;7757;52.626;4.746;2022-08-19T08:11:04;101213.59;;;26.80;59.08
15314;BME280;7757;52.626;4.746;2022-08-19T08:13:30;101207.53;;;27.16;58.04
15314;BME280;7757;52.626;4.746;2022-08-19T08:15:57;101213.09;;;27.40;58.01
15314;BME280;7757;52.626;4.746;2022-08-19T08:18:24;101212.59;;;27.67;57.44
15314;BME280;7757;52.626;4.746;2022-08-19T08:20:51;101220.00;;;27.38;57.38
15314;BME280;7757;52.626;4.746;2022-08-19T08:23:19;101233.16;;;27.41;57.11
15314;BME280;7757;52.626;4.746;2022-08-19T08:25:51;101236.38;;;27.19;57.80
15314;BME280;7757;52.626;4.746;2022-08-19T08:28:18;101228.38;;;27.56;57.36
15314;BME280;7757;52.626;4.746;2022-08-19T08:30:47;101228.31;;;27.61;56.86
15314;BME280;7757;52.626;4.746;2022-08-19T08:33:17;101232.69;;;27.91;56.53
15314;BME280;7757;52.626;4.746;2022-08-19T08:35:43;101217.91;;;27.58;57.38
15314;BME280;7757;52.626;4.746;2022-08-19T08:38:11;101235.31;;;27.78;56.41
15314;BME280;7757;52.626;4.746;2022-08-19T08:40:45;101232.63;;;27.39;57.00
15314;BME280;7757;52.626;4.746;2022-08-19T08:43:22;101232.28;;;28.03;57.55
15314;BME280;7757;52.626;4.746;2022-08-19T08:45:55;101238.28;;;28.10;55.52
15314;BME280;7757;52.626;4.746;2022-08-19T08:48:24;101240.13;;;28.19;55.21
15314;BME280;7757;52.626;4.746;2022-08-19T08:50:54;101246.78;;;27.22;56.60
15314;BME280;7757;52.626;4.746;2022-08-19T08:53:23;101247.47;;;26.50;58.89
15314;BME280;7757;52.626;4.746;2022-08-19T08:55:52;101233.38;;;27.10;57.09
15314;BME280;7757;52.626;4.746;2022-08-19T08:58:25;101242.78;;;27.04;56.63
15314;BME280;7757;52.626;4.746;2022-08-19T09:00:54;101243.44;;;27.25;58.28
15314;BME280;7757;52.626;4.746;2022-08-19T09:03:23;101239.72;;;26.62;57.89
15314;BME280;7757;52.626;4.746;2022-08-19T09:05:57;101244.56;;;26.11;59.54
15314;BME280;7757;52.626;4.746;2022-08-19T09:08:32;101245.47;;;25.76;61.43
15314;BME280;7757;52.626;4.746;2022-08-19T09:11:07;101253.13;;;25.84;61.35
15314;BME280;7757;52.626;4.746;2022-08-19T09:13:42;101252.75;;;26.36;60.07
15314;BME280;7757;52.626;4.746;2022-08-19T09:16:12;101258.50;;;26.35;59.89
15314;BME280;7757;52.626;4.746;2022-08-19T09:18:41;101250.56;;;26.87;58.47
15314;BME280;7757;52.626;4.746;2022-08-19T09:21:09;101259.75;;;26.63;58.71
15314;BME280;7757;52.626;4.746;2022-08-19T09:23:36;101255.66;;;27.09;58.61
15314;BME280;7757;52.626;4.746;2022-08-19T09:26:08;101261.03;;;27.24;57.38
15314;BME280;7757;52.626;4.746;2022-08-19T09:28:35;101268.25;;;27.15;58.30
15314;BME280;7757;52.626;4.746;2022-08-19T09:31:02;101257.88;;;27.07;57.75
15314;BME280;7757;52.626;4.746;2022-08-19T09:33:29;101264.81;;;26.94;58.83
15314;BME280;7757;52.626;4.746;2022-08-19T09:36:02;101259.63;;;26.88;59.00
15314;BME280;7757;52.626;4.746;2022-08-19T09:38:29;101264.91;;;26.79;58.77
15314;BME280;7757;52.626;4.746;2022-08-19T09:41:02;101258.50;;;26.94;58.48
15314;BME280;7757;52.626;4.746;2022-08-19T09:43:31;101269.69;;;27.02;58.50
15314;BME280;7757;52.626;4.746;2022-08-19T09:45:59;101267.97;;;26.68;58.67
15314;BME280;7757;52.626;4.746;2022-08-19T09:48:26;101270.84;;;26.32;60.22
15314;BME280;7757;52.626;4.746;2022-08-19T09:50:52;101286.00;;;26.79;58.69
15314;BME280;7757;52.626;4.746;2022-08-19T09:53:19;101278.38;;;27.20;58.70
15314;BME280;7757;52.626;4.746;2022-08-19T09:55:47;101281.81;;;27.01;57.82
15314;BME280;7757;52.626;4.746;2022-08-19T09:58:14;101284.88;;;26.90;58.76
15314;BME280;7757;52.626;4.746;2022-08-19T10:00:42;101284.00;;;26.99;58.46
15314;BME280;7757;52.626;4.746;2022-08-19T10:03:08;101287.53;;;27.05;57.94
15314;BME280;7757;52.626;4.746;2022-08-19T10:05:36;101277.47;;;26.26;59.47
15314;BME280;7757;52.626;4.746;2022-08-19T10:08:17;101284.50;;;26.52;58.71
15314;BME280;7757;52.626;4.746;2022-08-19T10:10:44;101277.75;;;26.20;60.33
15314;BME280;7757;52.626;4.746;2022-08-19T10:13:12;101284.63;;;25.97;59.79
15314;BME280;7757;52.626;4.746;2022-08-19T10:15:39;101286.84;;;25.95;60.72
15314;BME280;7757;52.626;4.746;2022-08-19T10:18:07;101279.72;;;25.84;61.25
15314;BME280;7757;52.626;4.746;2022-08-19T10:20:34;101291.00;;;26.72;59.86
15314;BME280;7757;52.626;4.746;2022-08-19T10:23:01;101285.16;;;26.14;59.61
15314;BME280;7757;52.626;4.746;2022-08-19T10:25:28;101288.75;;;25.89;60.94
15314;BME280;7757;52.626;4.746;2022-08-19T10:27:54;101296.13;;;26.09;60.06
15314;BME280;7757;52.626;4.746;2022-08-19T10:30:21;101289.88;;;25.83;60.47
15314;BME280;7757;52.626;4.746;2022-08-19T10:32:47;101278.13;;;25.63;61.45
15314;BME280;7757;52.626;4.746;2022-08-19T10:35:15;101287.13;;;25.78;60.66
15314;BME280;7757;52.626;4.746;2022-08-19T10:37:42;101292.81;;;26.27;59.15
15314;BME280;7757;52.626;4.746;2022-08-19T10:40:09;101285.25;;;25.54;61.00
15314;BME280;7757;52.626;4.746;2022-08-19T10:42:37;101290.13;;;25.21;62.49
15314;BME280;7757;52.626;4.746;2022-08-19T10:45:05;101276.16;;;25.48;61.91
15314;BME280;7757;52.626;4.746;2022-08-19T10:47:32;101292.34;;;25.49;61.73
15314;BME280;7757;52.626;4.746;2022-08-19T10:49:58;101286.84;;;25.85;61.21
15314;BME280;7757;52.626;4.746;2022-08-19T10:52:46;101292.06;;;25.81;61.00
15314;BME280;7757;52.626;4.746;2022-08-19T10:55:12;101284.13;;;25.65;61.52
15314;BME280;7757;52.626;4.746;2022-08-19T10:57:56;101280.78;;;25.12;63.27
15314;BME280;7757;52.626;4.746;2022-08-19T11:00:24;101282.91;;;26.31;60.17
15314;BME280;7757;52.626;4.746;2022-08-19T11:02:51;101281.00;;;27.01;57.68
15314;BME280;7757;52.626;4.746;2022-08-19T11:05:18;101274.94;;;26.99;57.01
15314;BME280;7757;52.626;4.746;2022-08-19T11:07:46;101279.94;;;26.13;59.75
15314;BME280;7757;52.626;4.746;2022-08-19T11:10:15;101277.63;;;26.60;58.56
15314;BME280;7757;52.626;4.746;2022-08-19T11:12:44;101288.88;;;26.53;58.86
15314;BME280;7757;52.626;4.746;2022-08-19T11:15:11;101290.78;;;26.58;58.59
15314;BME280;7757;52.626;4.746;2022-08-19T11:17:38;101277.28;;;27.21;56.89
15314;BME280;7757;52.626;4.746;2022-08-19T11:20:09;101281.56;;;26.98;58.07
15314;BME280;7757;52.626;4.746;2022-08-19T11:22:35;101284.72;;;27.15;57.10
15314;BME280;7757;52.626;4.746;2022-08-19T11:25:04;101286.25;;;26.92;57.73
15314;BME280;7757;52.626;4.746;2022-08-19T11:27:31;101288.94;;;27.02;57.58
15314;BME280;7757;52.626;4.746;2022-08-19T11:29:58;101284.44;;;27.16;57.54
15314;BME280;7757;52.626;4.746;2022-08-19T11:32:25;101292.16;;;26.55;58.76
15314;BME280;7757;52.626;4.746;2022-08-19T11:34:52;101278.31;;;27.30;56.88
15314;BME280;7757;52.626;4.746;2022-08-19T11:37:19;101290.00;;;27.50;56.88
15314;BME280;7757;52.626;4.746;2022-08-19T11:39:46;101281.88;;;27.64;55.57
15314;BME280;7757;52.626;4.746;2022-08-19T11:42:13;101288.88;;;27.51;56.35
15314;BME280;7757;52.626;4.746;2022-08-19T11:44:58;101290.53;;;27.08;57.17
15314;BME280;7757;52.626;4.746;2022-08-19T11:47:24;101284.25;;;27.03;57.01
15314;BME280;7757;52.626;4.746;2022-08-19T11:49:51;101283.66;;;26.57;58.61
15314;BME280;7757;52.626;4.746;2022-08-19T11:52:18;101279.88;;;26.38;59.13
15314;BME280;7757;52.626;4.746;2022-08-19T11:54:44;101284.91;;;25.40;62.18
15314;BME280;7757;52.626;4.746;2022-08-19T11:57:11;101283.78;;;25.06;63.61
15314;BME280;7757;52.626;4.746;2022-08-19T11:59:41;101282.97;;;25.00;64.04
15314;BME280;7757;52.626;4.746;2022-08-19T12:02:07;101289.25;;;25.11;64.61
15314;BME280;7757;52.626;4.746;2022-08-19T12:04:34;101297.47;;;25.16;64.21
15314;BME280;7757;52.626;4.746;2022-08-19T12:07:01;101296.44;;;25.57;62.59
15314;BME280;7757;52.626;4.746;2022-08-19T12:09:28;101291.78;;;25.88;61.78
15314;BME280;7757;52.626;4.746;2022-08-19T12:11:54;101293.13;;;25.90;61.43
15314;BME280;7757;52.626;4.746;2022-08-19T12:14:21;101294.22;;;25.24;63.47
15314;BME280;7757;52.626;4.746;2022-08-19T12:16:49;101292.59;;;25.63;62.93
15314;BME280;7757;52.626;4.746;2022-08-19T12:19:16;101296.16;;;25.69;62.39
15314;BME280;7757;52.626;4.746;2022-08-19T12:21:42;101288.78;;;25.74;62.18
15314;BME280;7757;52.626;4.746;2022-08-19T12:24:09;101299.72;;;26.79;58.68
15314;BME280;7757;52.626;4.746;2022-08-19T12:26:36;101289.22;;;26.37;59.87
15314;BME280;7757;52.626;4.746;2022-08-19T12:29:03;101287.22;;;26.57;59.27
15314;BME280;7757;52.626;4.746;2022-08-19T12:31:30;101294.88;;;26.60;59.79
15314;BME280;7757;52.626;4.746;2022-08-19T12:33:58;101284.31;;;26.93;59.34
15314;BME280;7757;52.626;4.746;2022-08-19T12:36:25;101284.78;;;27.10;58.04
15314;BME280;7757;52.626;4.746;2022-08-19T12:38:52;101286.56;;;26.86;58.90
15314;BME280;7757;52.626;4.746;2022-08-19T12:41:19;101283.25;;;26.84;58.97
15314;BME280;7757;52.626;4.746;2022-08-19T12:43:47;101281.78;;;26.47;59.84
15314;BME280;7757;52.626;4.746;2022-08-19T12:46:14;101283.25;;;26.84;58.92
15314;BME280;7757;52.626;4.746;2022-08-19T12:48:41;101287.94;;;27.27;58.23
15314;BME280;7757;52.626;4.746;2022-08-19T12:51:12;101288.78;;;26.74;59.13
15314;BME280;7757;52.626;4.746;2022-08-19T12:53:39;101284.03;;;26.30;60.45
15314;BME280;7757;52.626;4.746;2022-08-19T12:56:07;101285.34;;;26.48;59.63
15314;BME280;7757;52.626;4.746;2022-08-19T12:58:33;101279.72;;;26.73;59.29
15314;BME280;7757;52.626;4.746;2022-08-19T13:01:06;101291.66;;;27.02;58.62
15314;BME280;7757;52.626;4.746;2022-08-19T13:03:33;101280.91;;;26.57;59.75
15314;BME280;7757;52.626;4.746;2022-08-19T13:05:59;101281.34;;;26.84;59.16